Urb Baralt, Puerto Rico
Current Conditions -  °F | °C
As of 4:01 AM on Thursday 23 Oct 2014 (Local Time) from TJNR Reporting Station
Light Rain Light Rain  
Wind Chill: 76°   Ceiling: 5500
Heat Index: 76°   Visibility: 8mi
Dew Point: 73°   Wind: 5mph
Humidity: 91%   Direction: NA
Pressure: 29.95"   Gusts: NA
Location:  18.3304°N, 65.6573°W
Report Text: TJNR 230801Z AUTO VRB04KT 8SM -RA FEW031 BKN055 OVC070 24/23 A2995 RMK AO2 P0000 T02440228
Loading
Personal Weather Stations






























Interactive Weather Map
Tropical Storm Tracking
New forecast layout! Learn more

10-Day Weather Forecast

Advertisements
Track Severe Weather on mobile